createdAt,value
2022-10-22T00:06:17.516Z,16.73
2022-10-22T00:16:40.396Z,17.02
2022-10-22T00:27:02.293Z,14.32
2022-10-22T00:37:25.337Z,15.48
2022-10-22T00:47:51.984Z,16.20
2022-10-22T00:58:15.268Z,16.58
2022-10-22T01:08:44.212Z,16.73
2022-10-22T01:19:24.198Z,17.40
2022-10-22T01:29:51.662Z,17.20
2022-10-22T01:40:16.177Z,16.92
2022-10-22T01:50:52.820Z,17.35
2022-10-22T02:01:19.071Z,16.40
2022-10-22T02:11:44.282Z,16.90
2022-10-22T02:22:06.194Z,15.82
2022-10-22T02:32:35.549Z,14.95
2022-10-22T02:42:57.170Z,15.38
2022-10-22T02:53:19.837Z,17.45
2022-10-22T03:03:40.984Z,18.08
2022-10-22T03:14:04.314Z,16.17
2022-10-22T03:24:29.950Z,15.40
2022-10-22T03:34:52.936Z,18.13
2022-10-22T03:45:15.021Z,17.10
2022-10-22T03:55:38.264Z,17.50
2022-10-22T04:06:02.569Z,18.83
2022-10-22T04:16:27.586Z,16.42
2022-10-22T04:26:51.684Z,17.02
2022-10-22T04:37:14.579Z,17.17
2022-10-22T04:47:37.830Z,18.92
2022-10-22T04:58:01.385Z,17.60
2022-10-22T05:08:22.928Z,15.98
2022-10-22T05:18:46.073Z,17.10
2022-10-22T05:29:10.411Z,17.98
2022-10-22T05:39:36.812Z,17.65
2022-10-22T05:50:02.882Z,17.77
2022-10-22T06:10:47.392Z,14.52
2022-10-22T06:21:11.971Z,16.13
2022-10-22T06:31:36.648Z,15.25
2022-10-22T06:41:59.501Z,16.35
2022-10-22T06:52:23.510Z,15.93
2022-10-22T07:02:46.026Z,18.17
2022-10-22T07:13:07.371Z,16.73
2022-10-22T07:23:30.684Z,16.52
2022-10-22T07:33:52.433Z,16.70
2022-10-22T07:44:14.891Z,17.10
2022-10-22T07:54:36.136Z,17.65
2022-10-22T08:05:00.222Z,17.67
2022-10-22T08:15:23.436Z,18.40
2022-10-22T08:25:54.567Z,17.25
2022-10-22T08:36:19.821Z,16.50
2022-10-22T08:47:01.087Z,17.38
2022-10-22T08:57:46.642Z,15.93
2022-10-22T09:08:16.461Z,15.43
2022-10-22T09:18:48.291Z,15.73
2022-10-22T09:29:22.451Z,16.00
2022-10-22T09:39:48.313Z,16.38
2022-10-22T09:50:23.559Z,12.35
2022-10-22T10:00:47.589Z,14.18
2022-10-22T10:11:29.307Z,14.57
2022-10-22T10:22:04.132Z,12.18
2022-10-22T10:33:02.425Z,12.60
2022-10-22T10:43:36.171Z,12.30
2022-10-22T10:54:14.678Z,12.48
2022-10-22T11:05:00.245Z,11.23
2022-10-22T11:15:30.669Z,13.52
2022-10-22T11:25:52.517Z,14.38
2022-10-22T11:36:17.062Z,14.65
2022-10-22T11:46:46.975Z,13.67
2022-10-22T11:57:22.111Z,12.90
2022-10-22T12:07:54.410Z,11.25
2022-10-22T12:18:21.116Z,9.07
2022-10-22T12:28:43.004Z,8.60
2022-10-22T12:39:12.591Z,8.63
2022-10-22T12:49:37.602Z,6.28
2022-10-22T13:00:01.907Z,5.72
2022-10-22T13:10:27.575Z,3.72
2022-10-22T13:20:59.441Z,4.03
2022-10-22T13:31:25.951Z,4.20
2022-10-22T13:41:50.265Z,3.50
2022-10-22T13:52:20.472Z,3.57
2022-10-22T14:02:45.098Z,3.13
2022-10-22T15:13:14.297Z,3.15
2022-10-22T15:37:07.326Z,3.60
2022-10-22T15:48:16.486Z,5.25
2022-10-22T15:58:38.719Z,3.65
2022-10-22T16:09:07.580Z,22.35
2022-10-22T16:19:29.022Z,10.10
2022-10-22T16:29:52.326Z,6.18
2022-10-22T16:40:14.845Z,5.63
2022-10-22T16:50:39.919Z,8.25
2022-10-22T17:01:01.849Z,8.30
2022-10-22T17:11:25.990Z,14.80
2022-10-22T17:21:50.081Z,7.82
2022-10-22T17:32:12.909Z,9.07
2022-10-22T17:42:34.871Z,12.05
2022-10-22T17:52:57.428Z,11.38
2022-10-22T18:03:23.113Z,12.35
2022-10-22T18:13:49.420Z,13.90
2022-10-22T18:24:36.142Z,12.88
2022-10-22T18:35:04.509Z,10.27
2022-10-22T18:45:25.817Z,14.00
2022-10-22T18:56:49.017Z,13.20
2022-10-22T19:07:46.140Z,11.98
2022-10-22T19:18:10.292Z,10.88
2022-10-22T19:28:33.060Z,10.30
2022-10-22T19:39:00.682Z,11.00
2022-10-22T19:49:23.156Z,12.73
2022-10-22T19:59:51.680Z,12.35
2022-10-22T20:10:19.179Z,13.90
2022-10-22T20:20:42.630Z,21.27
2022-10-22T20:31:09.515Z,19.30
2022-10-22T20:41:34.017Z,10.75
2022-10-22T20:51:56.341Z,10.75
2022-10-22T21:02:19.577Z,8.35
2022-10-22T21:12:45.665Z,9.68
2022-10-22T21:23:10.298Z,9.27
2022-10-22T21:33:31.856Z,9.65
2022-10-22T21:43:54.748Z,9.55
2022-10-22T21:54:16.119Z,9.32
2022-10-22T22:04:39.223Z,8.32
2022-10-22T22:15:03.099Z,8.50
2022-10-22T22:25:25.830Z,9.23
2022-10-22T22:35:47.476Z,9.23
2022-10-22T22:46:34.705Z,9.15
2022-10-22T22:57:23.945Z,9.15
2022-10-22T23:08:09.376Z,9.32
2022-10-22T23:18:53.822Z,11.20
2022-10-22T23:29:40.865Z,9.50
2022-10-22T23:40:25.321Z,9.98
2022-10-22T23:51:15.901Z,10.95
